sensor_id;sensor_type;location;lat;lon;timestamp;pressure;altitude;pressure_sealevel;temperature;humidity
50364;BME280;36272;59.400;17.982;2023-12-28T00:04:46;101042.69;;;-4.62;88.46
50364;BME280;36272;59.400;17.982;2023-12-28T00:10:40;101046.50;;;-4.66;88.47
50364;BME280;36272;59.400;17.982;2023-12-28T00:15:42;101040.78;;;-4.60;88.50
50364;BME280;36272;59.400;17.982;2023-12-28T00:20:43;101040.56;;;-4.57;88.58
50364;BME280;36272;59.400;17.982;2023-12-28T00:26:00;101013.97;;;-4.62;88.37
50364;BME280;36272;59.400;17.982;2023-12-28T00:31:18;101026.56;;;-4.56;88.30
50364;BME280;36272;59.400;17.982;2023-12-28T00:36:29;101013.72;;;-4.59;88.10
50364;BME280;36272;59.400;17.982;2023-12-28T00:41:48;101015.63;;;-4.61;88.34
50364;BME280;36272;59.400;17.982;2023-12-28T00:46:50;101011.84;;;-4.68;88.52
50364;BME280;36272;59.400;17.982;2023-12-28T00:51:52;100993.78;;;-4.71;88.21
50364;BME280;36272;59.400;17.982;2023-12-28T00:57:05;100998.16;;;-4.72;88.10
50364;BME280;36272;59.400;17.982;2023-12-28T01:02:07;101001.28;;;-4.67;88.16
50364;BME280;36272;59.400;17.982;2023-12-28T01:07:18;100999.25;;;-4.74;88.13
50364;BME280;36272;59.400;17.982;2023-12-28T01:12:29;100981.19;;;-4.78;88.25
50364;BME280;36272;59.400;17.982;2023-12-28T01:17:30;100977.41;;;-4.73;88.19
50364;BME280;36272;59.400;17.982;2023-12-28T01:22:32;100978.13;;;-4.71;88.11
50364;BME280;36272;59.400;17.982;2023-12-28T01:27:39;100940.00;;;-4.74;88.08
50364;BME280;36272;59.400;17.982;2023-12-28T01:32:47;100938.13;;;-4.72;88.07
50364;BME280;36272;59.400;17.982;2023-12-28T01:44:07;100920.56;;;-4.70;88.30
50364;BME280;36272;59.400;17.982;2023-12-28T01:49:37;100914.28;;;-4.67;88.18
50364;BME280;36272;59.400;17.982;2023-12-28T01:54:39;100893.75;;;-4.72;88.17
50364;BME280;36272;59.400;17.982;2023-12-28T01:59:46;100888.41;;;-4.70;88.19
50364;BME280;36272;59.400;17.982;2023-12-28T02:04:54;100873.47;;;-4.68;88.25
50364;BME280;36272;59.400;17.982;2023-12-28T02:10:02;100879.75;;;-4.71;88.24
50364;BME280;36272;59.400;17.982;2023-12-28T02:15:24;100871.81;;;-4.69;88.14
50364;BME280;36272;59.400;17.982;2023-12-28T02:20:31;100863.97;;;-4.69;88.23
50364;BME280;36272;59.400;17.982;2023-12-28T02:25:35;100838.91;;;-4.72;88.04
50364;BME280;36272;59.400;17.982;2023-12-28T02:30:37;100845.47;;;-4.66;88.33
50364;BME280;36272;59.400;17.982;2023-12-28T02:35:45;100824.09;;;-4.71;88.19
50364;BME280;36272;59.400;17.982;2023-12-28T02:41:22;100804.13;;;-4.61;88.35
50364;BME280;36272;59.400;17.982;2023-12-28T02:46:26;100783.75;;;-4.67;88.07
50364;BME280;36272;59.400;17.982;2023-12-28T02:52:17;100785.50;;;-4.56;88.28
50364;BME280;36272;59.400;17.982;2023-12-28T02:57:25;100766.88;;;-4.63;88.28
50364;BME280;36272;59.400;17.982;2023-12-28T03:02:30;100758.78;;;-4.60;88.07
50364;BME280;36272;59.400;17.982;2023-12-28T03:07:35;100739.44;;;-4.57;88.22
50364;BME280;36272;59.400;17.982;2023-12-28T03:12:40;100736.69;;;-4.56;88.18
50364;BME280;36272;59.400;17.982;2023-12-28T03:18:23;100726.72;;;-4.51;88.32
50364;BME280;36272;59.400;17.982;2023-12-28T03:23:32;100732.31;;;-4.44;88.25
50364;BME280;36272;59.400;17.982;2023-12-28T03:28:36;100723.88;;;-4.48;88.24
50364;BME280;36272;59.400;17.982;2023-12-28T03:33:38;100715.69;;;-4.43;88.27
50364;BME280;36272;59.400;17.982;2023-12-28T03:38:40;100711.28;;;-4.42;88.21
50364;BME280;36272;59.400;17.982;2023-12-28T03:43:48;100706.03;;;-4.42;88.26
50364;BME280;36272;59.400;17.982;2023-12-28T03:48:53;100698.66;;;-4.37;88.38
50364;BME280;36272;59.400;17.982;2023-12-28T03:53:54;100703.16;;;-4.28;88.51
50364;BME280;36272;59.400;17.982;2023-12-28T03:58:56;100689.63;;;-4.33;88.40
50364;BME280;36272;59.400;17.982;2023-12-28T04:04:01;100683.31;;;-4.30;88.46
50364;BME280;36272;59.400;17.982;2023-12-28T04:09:02;100670.25;;;-4.30;88.43
50364;BME280;36272;59.400;17.982;2023-12-28T04:14:09;100659.69;;;-4.29;88.63
50364;BME280;36272;59.400;17.982;2023-12-28T04:19:11;100659.19;;;-4.23;88.64
50364;BME280;36272;59.400;17.982;2023-12-28T04:24:12;100641.59;;;-4.21;88.76
50364;BME280;36272;59.400;17.982;2023-12-28T04:29:17;100623.03;;;-4.18;88.73
50364;BME280;36272;59.400;17.982;2023-12-28T04:34:19;100635.09;;;-4.05;88.84
50364;BME280;36272;59.400;17.982;2023-12-28T04:39:26;100612.25;;;-4.03;88.81
50364;BME280;36272;59.400;17.982;2023-12-28T04:44:30;100582.56;;;-4.02;88.87
50364;BME280;36272;59.400;17.982;2023-12-28T04:49:36;100556.88;;;-3.97;88.94
50364;BME280;36272;59.400;17.982;2023-12-28T04:54:59;100528.13;;;-3.97;89.00
50364;BME280;36272;59.400;17.982;2023-12-28T05:00:06;100517.13;;;-3.91;89.29
50364;BME280;36272;59.400;17.982;2023-12-28T05:05:11;100494.69;;;-3.93;89.18
50364;BME280;36272;59.400;17.982;2023-12-28T05:10:43;100478.38;;;-3.85;89.22
50364;BME280;36272;59.400;17.982;2023-12-28T05:15:53;100443.09;;;-3.91;89.25
50364;BME280;36272;59.400;17.982;2023-12-28T05:21:07;100440.13;;;-3.86;89.48
50364;BME280;36272;59.400;17.982;2023-12-28T05:26:22;100428.44;;;-3.82;89.45
50364;BME280;36272;59.400;17.982;2023-12-28T05:31:30;100434.63;;;-3.74;89.36
50364;BME280;36272;59.400;17.982;2023-12-28T05:36:44;100417.81;;;-3.71;89.48
50364;BME280;36272;59.400;17.982;2023-12-28T05:41:49;100424.31;;;-3.65;89.33
50364;BME280;36272;59.400;17.982;2023-12-28T05:46:52;100404.78;;;-3.61;89.30
50364;BME280;36272;59.400;17.982;2023-12-28T05:51:53;100392.53;;;-3.61;89.28
50364;BME280;36272;59.400;17.982;2023-12-28T05:57:06;100376.97;;;-3.62;89.53
50364;BME280;36272;59.400;17.982;2023-12-28T06:02:10;100385.09;;;-3.55;89.44
50364;BME280;36272;59.400;17.982;2023-12-28T06:07:12;100395.00;;;-3.49;89.42
50364;BME280;36272;59.400;17.982;2023-12-28T06:12:14;100389.78;;;-3.49;89.57
50364;BME280;36272;59.400;17.982;2023-12-28T06:17:19;100390.31;;;-3.46;89.54
50364;BME280;36272;59.400;17.982;2023-12-28T06:22:23;100385.38;;;-3.39;89.53
50364;BME280;36272;59.400;17.982;2023-12-28T06:27:32;100388.25;;;-3.42;89.72
50364;BME280;36272;59.400;17.982;2023-12-28T06:32:34;100378.22;;;-3.37;89.79
50364;BME280;36272;59.400;17.982;2023-12-28T06:37:36;100367.47;;;-3.34;89.69
50364;BME280;36272;59.400;17.982;2023-12-28T06:42:53;100378.19;;;-3.27;89.68
50364;BME280;36272;59.400;17.982;2023-12-28T06:47:54;100362.63;;;-3.29;89.80
50364;BME280;36272;59.400;17.982;2023-12-28T06:52:59;100369.63;;;-3.19;89.67
50364;BME280;36272;59.400;17.982;2023-12-28T06:58:01;100369.34;;;-3.16;89.87
50364;BME280;36272;59.400;17.982;2023-12-28T07:03:05;100352.56;;;-3.14;89.74
50364;BME280;36272;59.400;17.982;2023-12-28T07:08:19;100332.44;;;-3.13;90.06
50364;BME280;36272;59.400;17.982;2023-12-28T07:13:36;100316.44;;;-3.10;90.24
50364;BME280;36272;59.400;17.982;2023-12-28T07:18:37;100296.88;;;-3.06;90.07
50364;BME280;36272;59.400;17.982;2023-12-28T07:23:39;100275.66;;;-3.03;90.35
50364;BME280;36272;59.400;17.982;2023-12-28T07:28:59;100271.22;;;-2.92;90.14
50364;BME280;36272;59.400;17.982;2023-12-28T07:34:00;100269.63;;;-2.85;90.22
50364;BME280;36272;59.400;17.982;2023-12-28T07:39:02;100263.81;;;-2.79;90.42
50364;BME280;36272;59.400;17.982;2023-12-28T07:44:22;100247.69;;;-2.74;90.63
50364;BME280;36272;59.400;17.982;2023-12-28T07:49:26;100248.59;;;-2.65;90.65
50364;BME280;36272;59.400;17.982;2023-12-28T07:54:36;100231.84;;;-2.55;90.82
50364;BME280;36272;59.400;17.982;2023-12-28T07:59:41;100220.34;;;-2.44;91.02
50364;BME280;36272;59.400;17.982;2023-12-28T08:04:43;100208.06;;;-2.25;90.96
50364;BME280;36272;59.400;17.982;2023-12-28T08:09:45;100170.88;;;-2.29;91.11
50364;BME280;36272;59.400;17.982;2023-12-28T08:14:55;100152.44;;;-2.19;91.50
50364;BME280;36272;59.400;17.982;2023-12-28T08:20:13;100139.28;;;-2.01;91.78
50364;BME280;36272;59.400;17.982;2023-12-28T08:25:24;100108.53;;;-1.90;92.22
50364;BME280;36272;59.400;17.982;2023-12-28T08:30:25;100084.34;;;-1.84;92.05
50364;BME280;36272;59.400;17.982;2023-12-28T08:35:28;100077.00;;;-1.72;92.47
50364;BME280;36272;59.400;17.982;2023-12-28T08:40:36;100052.59;;;-1.65;92.63
50364;BME280;36272;59.400;17.982;2023-12-28T08:45:38;100045.25;;;-1.53;92.58
50364;BME280;36272;59.400;17.982;2023-12-28T08:50:39;100015.44;;;-1.43;92.63
50364;BME280;36272;59.400;17.982;2023-12-28T08:55:44;99990.72;;;-1.32;92.75
50364;BME280;36272;59.400;17.982;2023-12-28T09:00:48;99981.38;;;-1.27;93.08
50364;BME280;36272;59.400;17.982;2023-12-28T09:05:50;99982.03;;;-1.16;93.15
50364;BME280;36272;59.400;17.982;2023-12-28T09:10:52;99956.94;;;-1.11;93.24
50364;BME280;36272;59.400;17.982;2023-12-28T09:15:56;99933.78;;;-1.07;93.49
50364;BME280;36272;59.400;17.982;2023-12-28T09:20:58;99935.09;;;-0.95;93.39
50364;BME280;36272;59.400;17.982;2023-12-28T09:26:01;99913.25;;;-0.87;93.57
50364;BME280;36272;59.400;17.982;2023-12-28T09:31:13;99897.66;;;-0.80;93.54
50364;BME280;36272;59.400;17.982;2023-12-28T09:36:23;99881.88;;;-0.72;93.59
50364;BME280;36272;59.400;17.982;2023-12-28T09:41:34;99860.03;;;-0.64;93.95
50364;BME280;36272;59.400;17.982;2023-12-28T09:46:42;99856.38;;;-0.55;94.00
50364;BME280;36272;59.400;17.982;2023-12-28T09:57:45;99819.00;;;-0.34;94.29
50364;BME280;36272;59.400;17.982;2023-12-28T10:03:15;99804.84;;;-0.24;94.52
50364;BME280;36272;59.400;17.982;2023-12-28T10:08:25;99800.50;;;-0.17;94.35
50364;BME280;36272;59.400;17.982;2023-12-28T10:13:49;99794.34;;;-0.01;94.72
50364;BME280;36272;59.400;17.982;2023-12-28T10:18:52;99783.63;;;0.01;94.71
50364;BME280;36272;59.400;17.982;2023-12-28T10:23:54;99764.16;;;0.10;94.81
50364;BME280;36272;59.400;17.982;2023-12-28T10:29:01;99746.03;;;0.15;95.04
50364;BME280;36272;59.400;17.982;2023-12-28T10:34:04;99747.59;;;0.24;95.14
50364;BME280;36272;59.400;17.982;2023-12-28T10:39:09;99729.09;;;0.33;95.23
50364;BME280;36272;59.400;17.982;2023-12-28T10:44:17;99705.72;;;0.38;95.25
50364;BME280;36272;59.400;17.982;2023-12-28T10:49:24;99684.94;;;0.43;95.33
50364;BME280;36272;59.400;17.982;2023-12-28T10:54:39;99646.66;;;0.55;95.66
50364;BME280;36272;59.400;17.982;2023-12-28T11:00:04;99648.38;;;0.63;95.66
50364;BME280;36272;59.400;17.982;2023-12-28T11:05:13;99624.56;;;0.71;95.54
50364;BME280;36272;59.400;17.982;2023-12-28T11:10:20;99600.94;;;0.78;95.79
50364;BME280;36272;59.400;17.982;2023-12-28T11:15:30;99599.22;;;0.85;95.70
50364;BME280;36272;59.400;17.982;2023-12-28T11:20:33;99587.50;;;0.88;95.87
50364;BME280;36272;59.400;17.982;2023-12-28T11:25:38;99586.69;;;0.87;95.95
50364;BME280;36272;59.400;17.982;2023-12-28T11:30:41;99577.66;;;0.97;95.88
50364;BME280;36272;59.400;17.982;2023-12-28T11:35:52;99569.41;;;1.00;96.00
50364;BME280;36272;59.400;17.982;2023-12-28T11:41:03;99558.88;;;1.00;96.08
50364;BME280;36272;59.400;17.982;2023-12-28T11:46:08;99549.59;;;1.04;96.21
50364;BME280;36272;59.400;17.982;2023-12-28T11:51:11;99532.41;;;1.08;96.31
50364;BME280;36272;59.400;17.982;2023-12-28T11:56:15;99518.44;;;1.14;96.40
50364;BME280;36272;59.400;17.982;2023-12-28T12:01:17;99507.38;;;1.19;96.36
50364;BME280;36272;59.400;17.982;2023-12-28T12:06:19;99487.28;;;1.18;96.41
50364;BME280;36272;59.400;17.982;2023-12-28T12:11:20;99467.25;;;1.24;96.50
50364;BME280;36272;59.400;17.982;2023-12-28T12:16:23;99438.66;;;1.21;96.88
50364;BME280;36272;59.400;17.982;2023-12-28T12:21:25;99429.38;;;1.25;96.62
50364;BME280;36272;59.400;17.982;2023-12-28T12:26:45;99405.53;;;1.33;96.86
50364;BME280;36272;59.400;17.982;2023-12-28T12:31:50;99397.22;;;1.36;96.98
50364;BME280;36272;59.400;17.982;2023-12-28T12:37:00;99375.75;;;1.39;97.17
50364;BME280;36272;59.400;17.982;2023-12-28T12:42:03;99367.84;;;1.39;97.06
50364;BME280;36272;59.400;17.982;2023-12-28T12:47:15;99354.91;;;1.44;97.15
50364;BME280;36272;59.400;17.982;2023-12-28T12:52:20;99328.13;;;1.41;97.31
50364;BME280;36272;59.400;17.982;2023-12-28T12:57:59;99317.25;;;1.51;97.56
50364;BME280;36272;59.400;17.982;2023-12-28T13:03:28;99317.66;;;1.54;97.01
50364;BME280;36272;59.400;17.982;2023-12-28T13:08:32;99311.56;;;1.54;97.14
50364;BME280;36272;59.400;17.982;2023-12-28T13:13:43;99299.81;;;1.56;97.22
50364;BME280;36272;59.400;17.982;2023-12-28T13:18:45;99305.88;;;1.57;97.36
50364;BME280;36272;59.400;17.982;2023-12-28T13:23:46;99302.84;;;1.60;97.34
50364;BME280;36272;59.400;17.982;2023-12-28T13:34:39;99284.00;;;1.63;97.17
50364;BME280;36272;59.400;17.982;2023-12-28T13:39:41;99268.81;;;1.65;97.15
50364;BME280;36272;59.400;17.982;2023-12-28T13:44:42;99255.84;;;1.70;97.32
50364;BME280;36272;59.400;17.982;2023-12-28T13:49:47;99246.53;;;1.74;97.35
50364;BME280;36272;59.400;17.982;2023-12-28T13:55:13;99230.09;;;1.72;97.39
50364;BME280;36272;59.400;17.982;2023-12-28T14:00:15;99221.78;;;1.75;97.31
50364;BME280;36272;59.400;17.982;2023-12-28T14:05:17;99223.63;;;1.82;97.23
50364;BME280;36272;59.400;17.982;2023-12-28T14:10:37;99196.44;;;1.74;97.51
50364;BME280;36272;59.400;17.982;2023-12-28T14:15:39;99208.41;;;1.84;97.44
50364;BME280;36272;59.400;17.982;2023-12-28T14:20:41;99213.47;;;1.85;97.50
50364;BME280;36272;59.400;17.982;2023-12-28T14:25:43;99191.78;;;1.90;97.30
50364;BME280;36272;59.400;17.982;2023-12-28T14:30:45;99188.31;;;1.89;97.33
50364;BME280;36272;59.400;17.982;2023-12-28T14:41:23;99183.06;;;1.89;97.37
50364;BME280;36272;59.400;17.982;2023-12-28T14:46:29;99176.16;;;1.95;97.40
50364;BME280;36272;59.400;17.982;2023-12-28T14:51:41;99165.78;;;2.00;97.50
50364;BME280;36272;59.400;17.982;2023-12-28T15:08:38;99136.38;;;2.03;97.04
50364;BME280;36272;59.400;17.982;2023-12-28T15:14:07;99125.22;;;2.01;97.65
50364;BME280;36272;59.400;17.982;2023-12-28T15:19:27;99134.75;;;2.02;97.53
50364;BME280;36272;59.400;17.982;2023-12-28T15:25:16;99121.75;;;2.07;97.44
50364;BME280;36272;59.400;17.982;2023-12-28T15:30:18;99114.88;;;2.06;97.01
50364;BME280;36272;59.400;17.982;2023-12-28T15:35:43;99121.56;;;2.16;96.89
50364;BME280;36272;59.400;17.982;2023-12-28T15:40:45;99118.31;;;2.14;97.31
50364;BME280;36272;59.400;17.982;2023-12-28T15:45:59;99102.69;;;2.12;97.56
50364;BME280;36272;59.400;17.982;2023-12-28T15:51:04;99100.25;;;2.11;97.54
50364;BME280;36272;59.400;17.982;2023-12-28T15:56:06;99096.59;;;2.18;96.96
50364;BME280;36272;59.400;17.982;2023-12-28T16:01:11;99083.00;;;2.15;97.47
50364;BME280;36272;59.400;17.982;2023-12-28T16:06:13;99088.69;;;2.18;97.27
50364;BME280;36272;59.400;17.982;2023-12-28T16:11:14;99089.47;;;2.19;97.16
50364;BME280;36272;59.400;17.982;2023-12-28T16:16:21;99073.06;;;2.17;97.70
50364;BME280;36272;59.400;17.982;2023-12-28T16:21:23;99078.31;;;2.17;97.34
50364;BME280;36272;59.400;17.982;2023-12-28T16:26:25;99080.56;;;2.20;97.20
50364;BME280;36272;59.400;17.982;2023-12-28T16:31:26;99089.06;;;2.22;97.16
50364;BME280;36272;59.400;17.982;2023-12-28T16:36:31;99072.22;;;2.23;97.04
50364;BME280;36272;59.400;17.982;2023-12-28T16:41:33;99068.56;;;2.24;97.04
50364;BME280;36272;59.400;17.982;2023-12-28T16:46:43;99064.31;;;2.23;97.23
50364;BME280;36272;59.400;17.982;2023-12-28T16:51:46;99065.94;;;2.24;97.30
50364;BME280;36272;59.400;17.982;2023-12-28T16:56:49;99064.91;;;2.25;96.84
50364;BME280;36272;59.400;17.982;2023-12-28T17:01:51;99063.28;;;2.24;96.86
50364;BME280;36272;59.400;17.982;2023-12-28T17:06:53;99059.63;;;2.25;97.12
50364;BME280;36272;59.400;17.982;2023-12-28T17:12:20;99051.50;;;2.27;97.14
50364;BME280;36272;59.400;17.982;2023-12-28T17:17:24;99059.22;;;2.28;96.91
50364;BME280;36272;59.400;17.982;2023-12-28T17:22:32;99058.22;;;2.29;97.25
50364;BME280;36272;59.400;17.982;2023-12-28T17:27:38;99053.13;;;2.28;96.98
50364;BME280;36272;59.400;17.982;2023-12-28T17:32:46;99050.06;;;2.31;97.26
50364;BME280;36272;59.400;17.982;2023-12-28T17:37:49;99063.06;;;2.32;96.90
50364;BME280;36272;59.400;17.982;2023-12-28T17:42:54;99057.78;;;2.32;96.91
50364;BME280;36272;59.400;17.982;2023-12-28T17:48:07;99062.06;;;2.33;97.04
50364;BME280;36272;59.400;17.982;2023-12-28T17:53:10;99071.78;;;2.33;96.89
50364;BME280;36272;59.400;17.982;2023-12-28T17:58:13;99086.19;;;2.37;96.93
50364;BME280;36272;59.400;17.982;2023-12-28T18:03:15;99085.59;;;2.35;96.94
50364;BME280;36272;59.400;17.982;2023-12-28T18:08:17;99077.47;;;2.36;96.95
50364;BME280;36272;59.400;17.982;2023-12-28T18:13:18;99075.44;;;2.38;96.96
50364;BME280;36272;59.400;17.982;2023-12-28T18:18:20;99062.84;;;2.41;96.75
50364;BME280;36272;59.400;17.982;2023-12-28T18:23:22;99075.03;;;2.42;96.90
50364;BME280;36272;59.400;17.982;2023-12-28T18:28:24;99077.22;;;2.45;96.76
50364;BME280;36272;59.400;17.982;2023-12-28T18:33:35;99083.50;;;2.44;96.93
50364;BME280;36272;59.400;17.982;2023-12-28T18:38:37;99098.13;;;2.46;96.81
50364;BME280;36272;59.400;17.982;2023-12-28T18:43:39;99098.94;;;2.47;97.04
50364;BME280;36272;59.400;17.982;2023-12-28T18:48:40;99109.09;;;2.50;97.04
50364;BME280;36272;59.400;17.982;2023-12-28T18:53:42;99119.44;;;2.51;96.76
50364;BME280;36272;59.400;17.982;2023-12-28T18:58:45;99138.72;;;2.52;97.01
50364;BME280;36272;59.400;17.982;2023-12-28T19:03:47;99128.56;;;2.49;97.18
50364;BME280;36272;59.400;17.982;2023-12-28T19:08:48;99141.41;;;2.45;96.91
50364;BME280;36272;59.400;17.982;2023-12-28T19:13:50;99150.53;;;2.43;97.04
50364;BME280;36272;59.400;17.982;2023-12-28T19:18:52;99166.38;;;2.43;97.14
50364;BME280;36272;59.400;17.982;2023-12-28T19:23:56;99174.72;;;2.40;97.22
50364;BME280;36272;59.400;17.982;2023-12-28T19:28:59;99193.59;;;2.36;97.34
50364;BME280;36272;59.400;17.982;2023-12-28T19:34:01;99190.75;;;2.31;97.24
50364;BME280;36272;59.400;17.982;2023-12-28T19:39:02;99191.56;;;2.32;97.33
50364;BME280;36272;59.400;17.982;2023-12-28T19:44:08;99173.91;;;2.26;97.51
50364;BME280;36272;59.400;17.982;2023-12-28T19:49:10;99185.88;;;2.28;97.43
50364;BME280;36272;59.400;17.982;2023-12-28T19:54:12;99208.00;;;2.27;97.41
50364;BME280;36272;59.400;17.982;2023-12-28T19:59:14;99230.53;;;2.23;97.52
50364;BME280;36272;59.400;17.982;2023-12-28T20:04:16;99250.81;;;2.22;97.52
50364;BME280;36272;59.400;17.982;2023-12-28T20:09:17;99266.88;;;2.21;97.51
50364;BME280;36272;59.400;17.982;2023-12-28T20:14:19;99243.75;;;2.16;97.73
50364;BME280;36272;59.400;17.982;2023-12-28T20:19:21;99256.50;;;2.13;97.83
50364;BME280;36272;59.400;17.982;2023-12-28T20:24:22;99250.44;;;2.12;97.91
50364;BME280;36272;59.400;17.982;2023-12-28T20:29:24;99278.44;;;2.13;97.74
50364;BME280;36272;59.400;17.982;2023-12-28T20:34:25;99286.16;;;2.08;98.01
50364;BME280;36272;59.400;17.982;2023-12-28T20:39:29;99286.53;;;2.05;98.07
50364;BME280;36272;59.400;17.982;2023-12-28T20:44:31;99302.78;;;2.02;98.17
50364;BME280;36272;59.400;17.982;2023-12-28T20:49:33;99308.84;;;2.02;98.16
50364;BME280;36272;59.400;17.982;2023-12-28T20:54:45;99301.31;;;1.99;98.48
50364;BME280;36272;59.400;17.982;2023-12-28T20:59:46;99323.47;;;1.98;98.29
50364;BME280;36272;59.400;17.982;2023-12-28T21:04:50;99320.22;;;1.96;98.20
50364;BME280;36272;59.400;17.982;2023-12-28T21:09:52;99330.56;;;1.91;98.58
50364;BME280;36272;59.400;17.982;2023-12-28T21:14:53;99334.81;;;1.92;98.29
50364;BME280;36272;59.400;17.982;2023-12-28T21:19:55;99332.56;;;1.89;98.43
50364;BME280;36272;59.400;17.982;2023-12-28T21:24:57;99324.66;;;1.89;98.62
50364;BME280;36272;59.400;17.982;2023-12-28T21:29:58;99322.19;;;1.87;98.67
50364;BME280;36272;59.400;17.982;2023-12-28T21:35:00;99330.31;;;1.86;98.76
50364;BME280;36272;59.400;17.982;2023-12-28T21:40:02;99327.25;;;1.82;98.60
50364;BME280;36272;59.400;17.982;2023-12-28T21:45:04;99318.56;;;1.82;98.71
50364;BME280;36272;59.400;17.982;2023-12-28T21:50:07;99325.00;;;1.79;98.91
50364;BME280;36272;59.400;17.982;2023-12-28T21:55:09;99325.44;;;1.76;98.82
50364;BME280;36272;59.400;17.982;2023-12-28T22:00:11;99354.44;;;1.76;99.04
50364;BME280;36272;59.400;17.982;2023-12-28T22:05:12;99363.16;;;1.76;98.96
50364;BME280;36272;59.400;17.982;2023-12-28T22:10:14;99359.28;;;1.72;99.30
50364;BME280;36272;59.400;17.982;2023-12-28T22:15:16;99379.97;;;1.75;99.05
50364;BME280;36272;59.400;17.982;2023-12-28T22:20:17;99387.69;;;1.77;98.90
50364;BME280;36272;59.400;17.982;2023-12-28T22:25:20;99379.78;;;1.77;99.05
50364;BME280;36272;59.400;17.982;2023-12-28T22:30:22;99375.13;;;1.79;98.97
50364;BME280;36272;59.400;17.982;2023-12-28T22:35:24;99383.47;;;1.83;98.76
50364;BME280;36272;59.400;17.982;2023-12-28T22:40:25;99388.13;;;1.81;98.81
50364;BME280;36272;59.400;17.982;2023-12-28T22:45:27;99401.31;;;1.81;99.06
50364;BME280;36272;59.400;17.982;2023-12-28T22:50:28;99393.00;;;1.84;98.72
50364;BME280;36272;59.400;17.982;2023-12-28T22:55:31;99382.44;;;1.84;98.85
50364;BME280;36272;59.400;17.982;2023-12-28T23:00:33;99389.53;;;1.83;99.08
50364;BME280;36272;59.400;17.982;2023-12-28T23:05:38;99385.09;;;1.84;99.06
50364;BME280;36272;59.400;17.982;2023-12-28T23:10:40;99382.25;;;1.85;98.94
50364;BME280;36272;59.400;17.982;2023-12-28T23:15:42;99371.31;;;1.88;98.89
50364;BME280;36272;59.400;17.982;2023-12-28T23:20:43;99376.41;;;1.90;98.91
50364;BME280;36272;59.400;17.982;2023-12-28T23:25:45;99371.13;;;1.90;99.05
50364;BME280;36272;59.400;17.982;2023-12-28T23:30:47;99365.22;;;1.88;98.84
50364;BME280;36272;59.400;17.982;2023-12-28T23:35:49;99351.03;;;1.89;99.03
50364;BME280;36272;59.400;17.982;2023-12-28T23:40:51;99376.56;;;1.88;98.99
50364;BME280;36272;59.400;17.982;2023-12-28T23:45:58;99348.41;;;1.89;99.37
50364;BME280;36272;59.400;17.982;2023-12-28T23:50:59;99349.81;;;1.91;99.01
50364;BME280;36272;59.400;17.982;2023-12-28T23:56:01;99339.25;;;1.91;98.89
